sensor_id;sensor_type;location;lat;lon;timestamp;P1;durP1;ratioP1;P2;durP2;ratioP2
14316;SDS011;7242;50.858;6.586;2023-08-12T00:00:15;14.43;;;11.00;;
14316;SDS011;7242;50.858;6.586;2023-08-12T00:03:19;12.23;;;10.80;;
14316;SDS011;7242;50.858;6.586;2023-08-12T00:06:19;12.50;;;10.70;;
14316;SDS011;7242;50.858;6.586;2023-08-12T00:09:20;13.30;;;11.83;;
14316;SDS011;7242;50.858;6.586;2023-08-12T00:12:21;13.73;;;12.23;;
14316;SDS011;7242;50.858;6.586;2023-08-12T00:15:22;12.87;;;11.50;;
14316;SDS011;7242;50.858;6.586;2023-08-12T00:18:23;13.73;;;12.20;;
14316;SDS011;7242;50.858;6.586;2023-08-12T00:21:25;15.00;;;11.47;;
14316;SDS011;7242;50.858;6.586;2023-08-12T00:24:26;14.90;;;12.23;;
14316;SDS011;7242;50.858;6.586;2023-08-12T00:27:27;13.80;;;11.47;;
14316;SDS011;7242;50.858;6.586;2023-08-12T00:30:28;16.37;;;13.57;;
14316;SDS011;7242;50.858;6.586;2023-08-12T00:33:29;12.63;;;10.73;;
14316;SDS011;7242;50.858;6.586;2023-08-12T00:36:30;13.47;;;12.00;;
14316;SDS011;7242;50.858;6.586;2023-08-12T00:39:31;14.77;;;12.17;;
14316;SDS011;7242;50.858;6.586;2023-08-12T00:42:32;13.40;;;12.03;;
14316;SDS011;7242;50.858;6.586;2023-08-12T00:45:33;14.67;;;13.17;;
14316;SDS011;7242;50.858;6.586;2023-08-12T00:48:34;14.00;;;12.23;;
14316;SDS011;7242;50.858;6.586;2023-08-12T00:51:35;17.80;;;14.60;;
14316;SDS011;7242;50.858;6.586;2023-08-12T00:54:37;15.63;;;14.00;;
14316;SDS011;7242;50.858;6.586;2023-08-12T00:57:37;17.37;;;15.57;;
14316;SDS011;7242;50.858;6.586;2023-08-12T01:00:38;16.83;;;15.23;;
14316;SDS011;7242;50.858;6.586;2023-08-12T01:03:40;17.20;;;15.40;;
14316;SDS011;7242;50.858;6.586;2023-08-12T01:06:41;17.73;;;16.00;;
14316;SDS011;7242;50.858;6.586;2023-08-12T01:09:43;17.47;;;14.97;;
14316;SDS011;7242;50.858;6.586;2023-08-12T01:12:47;17.07;;;15.37;;
14316;SDS011;7242;50.858;6.586;2023-08-12T01:15:55;17.93;;;16.03;;
14316;SDS011;7242;50.858;6.586;2023-08-12T01:18:57;18.87;;;16.87;;
14316;SDS011;7242;50.858;6.586;2023-08-12T01:22:00;19.00;;;17.10;;
14316;SDS011;7242;50.858;6.586;2023-08-12T01:25:02;17.27;;;15.50;;
14316;SDS011;7242;50.858;6.586;2023-08-12T01:28:02;18.10;;;16.30;;
14316;SDS011;7242;50.858;6.586;2023-08-12T01:34:46;17.93;;;16.23;;
14316;SDS011;7242;50.858;6.586;2023-08-12T01:37:48;21.40;;;19.27;;
14316;SDS011;7242;50.858;6.586;2023-08-12T01:40:51;21.17;;;18.10;;
14316;SDS011;7242;50.858;6.586;2023-08-12T01:43:52;18.77;;;16.87;;
14316;SDS011;7242;50.858;6.586;2023-08-12T01:46:53;19.03;;;17.13;;
14316;SDS011;7242;50.858;6.586;2023-08-12T01:49:55;18.43;;;16.60;;
14316;SDS011;7242;50.858;6.586;2023-08-12T01:52:57;19.37;;;17.30;;
14316;SDS011;7242;50.858;6.586;2023-08-12T01:55:58;17.70;;;15.90;;
14316;SDS011;7242;50.858;6.586;2023-08-12T01:58:59;19.33;;;16.40;;
14316;SDS011;7242;50.858;6.586;2023-08-12T02:02:00;16.33;;;14.77;;
14316;SDS011;7242;50.858;6.586;2023-08-12T02:05:01;21.47;;;18.70;;
14316;SDS011;7242;50.858;6.586;2023-08-12T02:08:02;20.67;;;18.47;;
14316;SDS011;7242;50.858;6.586;2023-08-12T02:11:03;17.97;;;16.07;;
14316;SDS011;7242;50.858;6.586;2023-08-12T02:14:03;16.37;;;14.83;;
14316;SDS011;7242;50.858;6.586;2023-08-12T02:17:04;17.83;;;16.03;;
14316;SDS011;7242;50.858;6.586;2023-08-12T02:20:06;16.93;;;15.23;;
14316;SDS011;7242;50.858;6.586;2023-08-12T02:23:07;19.40;;;17.50;;
14316;SDS011;7242;50.858;6.586;2023-08-12T02:26:08;17.67;;;15.90;;
14316;SDS011;7242;50.858;6.586;2023-08-12T02:29:09;17.83;;;15.83;;
14316;SDS011;7242;50.858;6.586;2023-08-12T02:32:09;19.53;;;17.30;;
14316;SDS011;7242;50.858;6.586;2023-08-12T02:35:11;17.33;;;15.73;;
14316;SDS011;7242;50.858;6.586;2023-08-12T02:38:11;17.93;;;16.13;;
14316;SDS011;7242;50.858;6.586;2023-08-12T02:41:12;18.07;;;16.30;;
14316;SDS011;7242;50.858;6.586;2023-08-12T02:44:14;18.63;;;16.60;;
14316;SDS011;7242;50.858;6.586;2023-08-12T02:47:14;19.20;;;16.50;;
14316;SDS011;7242;50.858;6.586;2023-08-12T02:50:15;18.13;;;15.87;;
14316;SDS011;7242;50.858;6.586;2023-08-12T02:53:17;18.20;;;16.37;;
14316;SDS011;7242;50.858;6.586;2023-08-12T02:56:18;16.30;;;14.60;;
14316;SDS011;7242;50.858;6.586;2023-08-12T02:59:18;17.23;;;14.70;;
14316;SDS011;7242;50.858;6.586;2023-08-12T03:02:19;15.60;;;14.00;;
14316;SDS011;7242;50.858;6.586;2023-08-12T03:05:21;13.40;;;12.00;;
14316;SDS011;7242;50.858;6.586;2023-08-12T03:08:22;12.53;;;11.20;;
14316;SDS011;7242;50.858;6.586;2023-08-12T03:11:23;11.00;;;9.83;;
14316;SDS011;7242;50.858;6.586;2023-08-12T03:14:28;11.73;;;10.53;;
14316;SDS011;7242;50.858;6.586;2023-08-12T03:17:32;11.07;;;9.97;;
14316;SDS011;7242;50.858;6.586;2023-08-12T03:20:33;10.53;;;9.53;;
14316;SDS011;7242;50.858;6.586;2023-08-12T03:23:36;10.93;;;9.80;;
14316;SDS011;7242;50.858;6.586;2023-08-12T03:26:39;11.43;;;10.30;;
14316;SDS011;7242;50.858;6.586;2023-08-12T03:29:40;11.43;;;10.20;;
14316;SDS011;7242;50.858;6.586;2023-08-12T03:32:41;11.17;;;10.07;;
14316;SDS011;7242;50.858;6.586;2023-08-12T03:35:44;13.10;;;10.40;;
14316;SDS011;7242;50.858;6.586;2023-08-12T03:38:47;10.73;;;9.70;;
14316;SDS011;7242;50.858;6.586;2023-08-12T03:41:52;10.73;;;9.67;;
14316;SDS011;7242;50.858;6.586;2023-08-12T03:44:53;10.73;;;9.67;;
14316;SDS011;7242;50.858;6.586;2023-08-12T03:47:54;10.73;;;9.40;;
14316;SDS011;7242;50.858;6.586;2023-08-12T03:50:56;12.43;;;11.17;;
14316;SDS011;7242;50.858;6.586;2023-08-12T03:53:57;12.30;;;11.00;;
14316;SDS011;7242;50.858;6.586;2023-08-12T03:56:58;14.13;;;11.60;;
14316;SDS011;7242;50.858;6.586;2023-08-12T03:59:59;16.67;;;14.80;;
14316;SDS011;7242;50.858;6.586;2023-08-12T04:03:00;17.83;;;16.03;;
14316;SDS011;7242;50.858;6.586;2023-08-12T04:06:02;17.20;;;15.40;;
14316;SDS011;7242;50.858;6.586;2023-08-12T04:09:03;16.67;;;14.67;;
14316;SDS011;7242;50.858;6.586;2023-08-12T04:12:05;19.10;;;17.10;;
14316;SDS011;7242;50.858;6.586;2023-08-12T04:15:06;18.17;;;16.20;;
14316;SDS011;7242;50.858;6.586;2023-08-12T04:18:08;20.50;;;17.00;;
14316;SDS011;7242;50.858;6.586;2023-08-12T04:21:09;19.67;;;17.67;;
14316;SDS011;7242;50.858;6.586;2023-08-12T04:24:12;19.70;;;17.60;;
14316;SDS011;7242;50.858;6.586;2023-08-12T04:27:13;20.20;;;17.50;;
14316;SDS011;7242;50.858;6.586;2023-08-12T04:30:16;20.50;;;17.03;;
14316;SDS011;7242;50.858;6.586;2023-08-12T04:33:18;20.07;;;18.00;;
14316;SDS011;7242;50.858;6.586;2023-08-12T04:36:23;18.17;;;16.30;;
14316;SDS011;7242;50.858;6.586;2023-08-12T04:39:24;21.60;;;19.27;;
14316;SDS011;7242;50.858;6.586;2023-08-12T04:42:26;21.00;;;18.80;;
14316;SDS011;7242;50.858;6.586;2023-08-12T04:45:27;24.67;;;21.63;;
14316;SDS011;7242;50.858;6.586;2023-08-12T04:48:28;21.87;;;19.63;;
14316;SDS011;7242;50.858;6.586;2023-08-12T04:51:29;22.10;;;19.80;;
14316;SDS011;7242;50.858;6.586;2023-08-12T04:54:31;25.23;;;22.37;;
14316;SDS011;7242;50.858;6.586;2023-08-12T04:57:32;21.93;;;19.57;;
14316;SDS011;7242;50.858;6.586;2023-08-12T05:00:33;24.83;;;22.07;;
14316;SDS011;7242;50.858;6.586;2023-08-12T05:03:34;23.93;;;21.43;;
14316;SDS011;7242;50.858;6.586;2023-08-12T05:06:35;24.23;;;21.63;;
14316;SDS011;7242;50.858;6.586;2023-08-12T05:09:36;23.37;;;21.07;;
14316;SDS011;7242;50.858;6.586;2023-08-12T05:12:37;24.37;;;21.93;;
14316;SDS011;7242;50.858;6.586;2023-08-12T05:15:38;24.50;;;21.27;;
14316;SDS011;7242;50.858;6.586;2023-08-12T05:18:39;23.57;;;20.83;;
14316;SDS011;7242;50.858;6.586;2023-08-12T05:21:41;21.70;;;19.47;;
14316;SDS011;7242;50.858;6.586;2023-08-12T05:24:42;21.33;;;18.03;;
14316;SDS011;7242;50.858;6.586;2023-08-12T05:27:42;20.77;;;18.67;;
14316;SDS011;7242;50.858;6.586;2023-08-12T05:30:43;19.90;;;17.80;;
14316;SDS011;7242;50.858;6.586;2023-08-12T05:33:44;17.67;;;15.77;;
14316;SDS011;7242;50.858;6.586;2023-08-12T05:36:45;20.20;;;16.97;;
14316;SDS011;7242;50.858;6.586;2023-08-12T05:39:46;14.83;;;13.20;;
14316;SDS011;7242;50.858;6.586;2023-08-12T05:42:47;15.17;;;13.57;;
14316;SDS011;7242;50.858;6.586;2023-08-12T05:45:48;14.63;;;13.23;;
14316;SDS011;7242;50.858;6.586;2023-08-12T05:48:49;14.03;;;12.63;;
14316;SDS011;7242;50.858;6.586;2023-08-12T05:51:50;15.27;;;11.70;;
14316;SDS011;7242;50.858;6.586;2023-08-12T05:54:51;13.87;;;12.20;;
14316;SDS011;7242;50.858;6.586;2023-08-12T05:57:52;12.90;;;11.43;;
14316;SDS011;7242;50.858;6.586;2023-08-12T06:00:53;13.73;;;10.03;;
14316;SDS011;7242;50.858;6.586;2023-08-12T06:03:54;11.13;;;8.73;;
14316;SDS011;7242;50.858;6.586;2023-08-12T06:06:55;9.20;;;8.30;;
14316;SDS011;7242;50.858;6.586;2023-08-12T06:09:56;7.67;;;6.80;;
14316;SDS011;7242;50.858;6.586;2023-08-12T06:12:57;8.57;;;6.07;;
14316;SDS011;7242;50.858;6.586;2023-08-12T06:15:57;7.10;;;4.77;;
14316;SDS011;7242;50.858;6.586;2023-08-12T06:18:59;6.13;;;4.97;;
14316;SDS011;7242;50.858;6.586;2023-08-12T06:22:00;7.33;;;4.60;;
14316;SDS011;7242;50.858;6.586;2023-08-12T06:25:00;6.40;;;4.63;;
14316;SDS011;7242;50.858;6.586;2023-08-12T06:28:01;6.87;;;4.70;;
14316;SDS011;7242;50.858;6.586;2023-08-12T06:31:04;5.20;;;4.30;;
14316;SDS011;7242;50.858;6.586;2023-08-12T06:34:05;4.90;;;4.13;;
14316;SDS011;7242;50.858;6.586;2023-08-12T06:37:06;4.37;;;3.67;;
14316;SDS011;7242;50.858;6.586;2023-08-12T06:40:07;4.93;;;3.30;;
14316;SDS011;7242;50.858;6.586;2023-08-12T06:43:08;3.70;;;3.33;;
14316;SDS011;7242;50.858;6.586;2023-08-12T06:46:09;3.37;;;2.77;;
14316;SDS011;7242;50.858;6.586;2023-08-12T06:49:10;4.17;;;2.73;;
14316;SDS011;7242;50.858;6.586;2023-08-12T06:52:11;2.63;;;2.43;;
14316;SDS011;7242;50.858;6.586;2023-08-12T06:55:12;3.20;;;2.80;;
14316;SDS011;7242;50.858;6.586;2023-08-12T06:58:13;4.80;;;3.13;;
14316;SDS011;7242;50.858;6.586;2023-08-12T07:01:17;3.50;;;3.20;;
14316;SDS011;7242;50.858;6.586;2023-08-12T07:04:18;4.37;;;3.40;;
14316;SDS011;7242;50.858;6.586;2023-08-12T07:07:19;4.20;;;3.80;;
14316;SDS011;7242;50.858;6.586;2023-08-12T07:10:20;3.73;;;3.33;;
14316;SDS011;7242;50.858;6.586;2023-08-12T07:13:21;5.93;;;3.30;;
14316;SDS011;7242;50.858;6.586;2023-08-12T07:16:22;4.23;;;3.30;;
14316;SDS011;7242;50.858;6.586;2023-08-12T07:19:23;3.70;;;3.07;;
14316;SDS011;7242;50.858;6.586;2023-08-12T07:22:24;3.93;;;3.10;;
14316;SDS011;7242;50.858;6.586;2023-08-12T07:25:25;3.73;;;3.33;;
14316;SDS011;7242;50.858;6.586;2023-08-12T07:28:27;5.03;;;3.23;;
14316;SDS011;7242;50.858;6.586;2023-08-12T07:31:27;3.33;;;2.57;;
14316;SDS011;7242;50.858;6.586;2023-08-12T07:34:28;3.23;;;2.73;;
14316;SDS011;7242;50.858;6.586;2023-08-12T07:37:29;3.73;;;2.50;;
14316;SDS011;7242;50.858;6.586;2023-08-12T07:40:30;3.63;;;2.50;;
14316;SDS011;7242;50.858;6.586;2023-08-12T07:43:31;3.00;;;2.20;;
14316;SDS011;7242;50.858;6.586;2023-08-12T07:46:32;2.53;;;2.20;;
14316;SDS011;7242;50.858;6.586;2023-08-12T07:49:33;3.20;;;1.97;;
14316;SDS011;7242;50.858;6.586;2023-08-12T07:52:34;5.00;;;2.03;;
14316;SDS011;7242;50.858;6.586;2023-08-12T07:55:35;3.23;;;2.20;;
14316;SDS011;7242;50.858;6.586;2023-08-12T07:58:36;2.60;;;1.63;;
14316;SDS011;7242;50.858;6.586;2023-08-12T08:01:37;1.73;;;1.50;;
14316;SDS011;7242;50.858;6.586;2023-08-12T08:04:38;1.53;;;1.43;;
14316;SDS011;7242;50.858;6.586;2023-08-12T08:07:38;2.57;;;1.47;;
14316;SDS011;7242;50.858;6.586;2023-08-12T08:10:39;2.30;;;1.30;;
14316;SDS011;7242;50.858;6.586;2023-08-12T08:13:40;1.50;;;1.27;;
14316;SDS011;7242;50.858;6.586;2023-08-12T08:16:41;1.80;;;1.30;;
14316;SDS011;7242;50.858;6.586;2023-08-12T08:19:42;1.60;;;1.50;;
14316;SDS011;7242;50.858;6.586;2023-08-12T08:22:43;1.60;;;1.47;;
14316;SDS011;7242;50.858;6.586;2023-08-12T08:25:44;2.60;;;1.30;;
14316;SDS011;7242;50.858;6.586;2023-08-12T08:28:45;1.30;;;1.20;;
14316;SDS011;7242;50.858;6.586;2023-08-12T08:31:45;1.70;;;1.50;;
14316;SDS011;7242;50.858;6.586;2023-08-12T08:34:46;1.30;;;1.20;;
14316;SDS011;7242;50.858;6.586;2023-08-12T08:37:47;1.33;;;1.13;;
14316;SDS011;7242;50.858;6.586;2023-08-12T08:40:51;1.60;;;1.30;;
14316;SDS011;7242;50.858;6.586;2023-08-12T08:43:52;2.83;;;1.30;;
14316;SDS011;7242;50.858;6.586;2023-08-12T08:46:53;1.40;;;1.30;;
14316;SDS011;7242;50.858;6.586;2023-08-12T08:49:55;1.70;;;1.40;;
14316;SDS011;7242;50.858;6.586;2023-08-12T08:52:57;2.17;;;1.30;;
14316;SDS011;7242;50.858;6.586;2023-08-12T08:55:58;1.40;;;1.30;;
14316;SDS011;7242;50.858;6.586;2023-08-12T08:59:00;2.47;;;1.20;;
14316;SDS011;7242;50.858;6.586;2023-08-12T09:02:02;2.13;;;1.13;;
14316;SDS011;7242;50.858;6.586;2023-08-12T09:05:03;1.30;;;1.20;;
14316;SDS011;7242;50.858;6.586;2023-08-12T09:08:05;1.53;;;1.00;;
14316;SDS011;7242;50.858;6.586;2023-08-12T09:11:10;3.13;;;1.20;;
14316;SDS011;7242;50.858;6.586;2023-08-12T09:14:13;2.43;;;1.00;;
14316;SDS011;7242;50.858;6.586;2023-08-12T09:17:14;1.53;;;0.90;;
14316;SDS011;7242;50.858;6.586;2023-08-12T09:20:16;1.23;;;1.00;;
14316;SDS011;7242;50.858;6.586;2023-08-12T09:23:16;0.83;;;0.63;;
14316;SDS011;7242;50.858;6.586;2023-08-12T09:26:19;1.13;;;0.70;;
14316;SDS011;7242;50.858;6.586;2023-08-12T09:29:29;1.80;;;0.70;;
14316;SDS011;7242;50.858;6.586;2023-08-12T09:32:33;0.90;;;0.70;;
14316;SDS011;7242;50.858;6.586;2023-08-12T09:35:35;0.60;;;0.60;;
14316;SDS011;7242;50.858;6.586;2023-08-12T09:38:37;0.50;;;0.50;;
14316;SDS011;7242;50.858;6.586;2023-08-12T09:41:38;2.20;;;0.70;;
14316;SDS011;7242;50.858;6.586;2023-08-12T09:44:39;0.53;;;0.50;;
14316;SDS011;7242;50.858;6.586;2023-08-12T09:47:44;1.53;;;0.60;;
14316;SDS011;7242;50.858;6.586;2023-08-12T09:50:45;0.60;;;0.60;;
14316;SDS011;7242;50.858;6.586;2023-08-12T09:53:47;0.50;;;0.50;;
14316;SDS011;7242;50.858;6.586;2023-08-12T09:56:49;1.53;;;0.50;;
14316;SDS011;7242;50.858;6.586;2023-08-12T09:59:59;0.80;;;0.50;;
14316;SDS011;7242;50.858;6.586;2023-08-12T10:03:00;1.03;;;0.50;;
14316;SDS011;7242;50.858;6.586;2023-08-12T10:06:01;0.70;;;0.70;;
14316;SDS011;7242;50.858;6.586;2023-08-12T10:09:03;0.60;;;0.60;;
14316;SDS011;7242;50.858;6.586;2023-08-12T10:12:05;0.50;;;0.50;;
14316;SDS011;7242;50.858;6.586;2023-08-12T10:15:07;0.57;;;0.57;;
14316;SDS011;7242;50.858;6.586;2023-08-12T10:18:09;1.10;;;0.60;;
14316;SDS011;7242;50.858;6.586;2023-08-12T10:21:10;0.57;;;0.57;;
14316;SDS011;7242;50.858;6.586;2023-08-12T10:24:11;1.83;;;0.80;;
14316;SDS011;7242;50.858;6.586;2023-08-12T10:27:16;0.80;;;0.80;;
14316;SDS011;7242;50.858;6.586;2023-08-12T10:30:20;0.77;;;0.77;;
14316;SDS011;7242;50.858;6.586;2023-08-12T10:33:21;1.27;;;0.70;;
14316;SDS011;7242;50.858;6.586;2023-08-12T10:36:22;0.80;;;0.80;;
14316;SDS011;7242;50.858;6.586;2023-08-12T10:39:24;2.50;;;1.10;;
14316;SDS011;7242;50.858;6.586;2023-08-12T10:45:47;1.20;;;0.90;;
14316;SDS011;7242;50.858;6.586;2023-08-12T10:48:56;0.83;;;0.83;;
14316;SDS011;7242;50.858;6.586;2023-08-12T10:51:57;1.87;;;0.80;;
14316;SDS011;7242;50.858;6.586;2023-08-12T10:55:17;1.00;;;0.90;;
14316;SDS011;7242;50.858;6.586;2023-08-12T10:58:29;2.03;;;1.10;;
14316;SDS011;7242;50.858;6.586;2023-08-12T11:01:42;2.00;;;1.00;;
14316;SDS011;7242;50.858;6.586;2023-08-12T11:04:43;0.97;;;0.97;;
14316;SDS011;7242;50.858;6.586;2023-08-12T11:07:45;0.97;;;0.70;;
14316;SDS011;7242;50.858;6.586;2023-08-12T11:10:46;0.80;;;0.80;;
14316;SDS011;7242;50.858;6.586;2023-08-12T11:13:52;0.90;;;0.70;;
14316;SDS011;7242;50.858;6.586;2023-08-12T11:16:54;1.00;;;0.80;;
14316;SDS011;7242;50.858;6.586;2023-08-12T11:19:55;0.87;;;0.83;;
14316;SDS011;7242;50.858;6.586;2023-08-12T11:22:56;0.90;;;0.90;;
14316;SDS011;7242;50.858;6.586;2023-08-12T11:25:58;1.43;;;0.80;;
14316;SDS011;7242;50.858;6.586;2023-08-12T11:29:01;0.80;;;0.80;;
14316;SDS011;7242;50.858;6.586;2023-08-12T11:32:02;0.90;;;0.80;;
14316;SDS011;7242;50.858;6.586;2023-08-12T11:35:03;1.10;;;0.77;;
14316;SDS011;7242;50.858;6.586;2023-08-12T11:38:06;1.07;;;0.77;;
14316;SDS011;7242;50.858;6.586;2023-08-12T11:41:07;2.77;;;0.70;;
14316;SDS011;7242;50.858;6.586;2023-08-12T11:44:26;1.43;;;1.30;;
14316;SDS011;7242;50.858;6.586;2023-08-12T11:47:27;2.00;;;0.80;;
14316;SDS011;7242;50.858;6.586;2023-08-12T11:50:29;0.60;;;0.60;;
14316;SDS011;7242;50.858;6.586;2023-08-12T11:53:30;0.73;;;0.73;;
14316;SDS011;7242;50.858;6.586;2023-08-12T11:56:31;0.97;;;0.80;;
14316;SDS011;7242;50.858;6.586;2023-08-12T11:59:32;1.03;;;0.80;;
14316;SDS011;7242;50.858;6.586;2023-08-12T12:02:35;0.70;;;0.70;;
14316;SDS011;7242;50.858;6.586;2023-08-12T12:05:38;1.03;;;0.70;;
14316;SDS011;7242;50.858;6.586;2023-08-12T12:08:39;0.90;;;0.80;;
14316;SDS011;7242;50.858;6.586;2023-08-12T12:11:40;0.63;;;0.63;;
14316;SDS011;7242;50.858;6.586;2023-08-12T12:14:41;1.73;;;0.80;;
14316;SDS011;7242;50.858;6.586;2023-08-12T12:17:45;0.73;;;0.67;;
14316;SDS011;7242;50.858;6.586;2023-08-12T12:20:53;1.27;;;0.83;;
14316;SDS011;7242;50.858;6.586;2023-08-12T12:23:55;0.50;;;0.50;;
14316;SDS011;7242;50.858;6.586;2023-08-12T12:26:56;0.70;;;0.70;;
14316;SDS011;7242;50.858;6.586;2023-08-12T12:29:57;0.77;;;0.50;;
14316;SDS011;7242;50.858;6.586;2023-08-12T12:32:58;1.40;;;0.70;;
14316;SDS011;7242;50.858;6.586;2023-08-12T12:35:59;0.50;;;0.50;;
14316;SDS011;7242;50.858;6.586;2023-08-12T12:39:00;1.60;;;0.80;;
14316;SDS011;7242;50.858;6.586;2023-08-12T12:42:02;0.90;;;0.70;;
14316;SDS011;7242;50.858;6.586;2023-08-12T12:45:03;2.63;;;0.50;;
14316;SDS011;7242;50.858;6.586;2023-08-12T12:48:04;1.07;;;0.50;;
14316;SDS011;7242;50.858;6.586;2023-08-12T12:51:05;0.70;;;0.47;;
14316;SDS011;7242;50.858;6.586;2023-08-12T12:54:06;2.13;;;0.47;;
14316;SDS011;7242;50.858;6.586;2023-08-12T12:57:07;0.90;;;0.30;;
14316;SDS011;7242;50.858;6.586;2023-08-12T13:00:08;0.70;;;0.47;;
14316;SDS011;7242;50.858;6.586;2023-08-12T13:03:11;0.40;;;0.40;;
14316;SDS011;7242;50.858;6.586;2023-08-12T13:06:12;0.93;;;0.40;;
14316;SDS011;7242;50.858;6.586;2023-08-12T13:09:13;0.30;;;0.30;;
14316;SDS011;7242;50.858;6.586;2023-08-12T13:12:14;1.13;;;0.33;;
14316;SDS011;7242;50.858;6.586;2023-08-12T13:15:15;0.53;;;0.50;;
14316;SDS011;7242;50.858;6.586;2023-08-12T13:18:16;0.40;;;0.40;;
14316;SDS011;7242;50.858;6.586;2023-08-12T13:21:18;0.50;;;0.47;;
14316;SDS011;7242;50.858;6.586;2023-08-12T13:24:19;0.70;;;0.60;;
14316;SDS011;7242;50.858;6.586;2023-08-12T13:27:20;0.87;;;0.67;;
14316;SDS011;7242;50.858;6.586;2023-08-12T13:30:21;2.47;;;0.57;;
14316;SDS011;7242;50.858;6.586;2023-08-12T13:33:22;0.50;;;0.50;;
14316;SDS011;7242;50.858;6.586;2023-08-12T13:36:23;1.00;;;0.50;;
14316;SDS011;7242;50.858;6.586;2023-08-12T13:39:24;0.40;;;0.40;;
14316;SDS011;7242;50.858;6.586;2023-08-12T13:42:25;0.57;;;0.40;;
14316;SDS011;7242;50.858;6.586;2023-08-12T13:45:26;1.03;;;0.40;;
14316;SDS011;7242;50.858;6.586;2023-08-12T13:48:27;0.57;;;0.43;;
14316;SDS011;7242;50.858;6.586;2023-08-12T13:51:29;0.40;;;0.40;;
14316;SDS011;7242;50.858;6.586;2023-08-12T13:54:31;0.23;;;0.20;;
14316;SDS011;7242;50.858;6.586;2023-08-12T13:57:32;0.30;;;0.30;;
14316;SDS011;7242;50.858;6.586;2023-08-12T14:00:32;0.80;;;0.37;;
14316;SDS011;7242;50.858;6.586;2023-08-12T14:03:33;0.30;;;0.30;;
14316;SDS011;7242;50.858;6.586;2023-08-12T14:06:35;0.50;;;0.40;;
14316;SDS011;7242;50.858;6.586;2023-08-12T14:09:36;0.80;;;0.60;;
14316;SDS011;7242;50.858;6.586;2023-08-12T14:12:37;1.07;;;0.40;;
14316;SDS011;7242;50.858;6.586;2023-08-12T14:15:38;1.07;;;0.57;;
14316;SDS011;7242;50.858;6.586;2023-08-12T14:18:39;0.60;;;0.50;;
14316;SDS011;7242;50.858;6.586;2023-08-12T14:21:40;1.20;;;0.90;;
14316;SDS011;7242;50.858;6.586;2023-08-12T14:24:41;2.10;;;0.80;;
14316;SDS011;7242;50.858;6.586;2023-08-12T14:27:44;1.03;;;0.70;;
14316;SDS011;7242;50.858;6.586;2023-08-12T14:30:45;0.93;;;0.60;;
14316;SDS011;7242;50.858;6.586;2023-08-12T14:33:45;1.73;;;0.73;;
14316;SDS011;7242;50.858;6.586;2023-08-12T14:36:46;1.53;;;0.70;;
14316;SDS011;7242;50.858;6.586;2023-08-12T14:39:47;3.13;;;0.73;;
14316;SDS011;7242;50.858;6.586;2023-08-12T14:42:48;1.33;;;0.80;;
14316;SDS011;7242;50.858;6.586;2023-08-12T14:45:49;3.87;;;0.70;;
14316;SDS011;7242;50.858;6.586;2023-08-12T14:48:50;1.23;;;0.90;;
14316;SDS011;7242;50.858;6.586;2023-08-12T14:51:56;1.97;;;0.80;;
14316;SDS011;7242;50.858;6.586;2023-08-12T14:54:57;1.10;;;0.70;;
14316;SDS011;7242;50.858;6.586;2023-08-12T14:57:58;2.70;;;0.80;;
14316;SDS011;7242;50.858;6.586;2023-08-12T15:00:59;0.97;;;0.67;;
14316;SDS011;7242;50.858;6.586;2023-08-12T15:04:00;2.30;;;1.00;;
14316;SDS011;7242;50.858;6.586;2023-08-12T15:07:02;1.53;;;0.80;;
14316;SDS011;7242;50.858;6.586;2023-08-12T15:10:02;2.53;;;1.00;;
14316;SDS011;7242;50.858;6.586;2023-08-12T15:13:04;0.93;;;0.80;;
14316;SDS011;7242;50.858;6.586;2023-08-12T15:16:05;1.47;;;0.67;;
14316;SDS011;7242;50.858;6.586;2023-08-12T15:19:06;1.33;;;0.90;;
14316;SDS011;7242;50.858;6.586;2023-08-12T15:22:07;2.40;;;0.80;;
14316;SDS011;7242;50.858;6.586;2023-08-12T15:25:08;1.03;;;0.67;;
14316;SDS011;7242;50.858;6.586;2023-08-12T15:28:08;1.53;;;0.80;;
14316;SDS011;7242;50.858;6.586;2023-08-12T15:31:13;2.17;;;0.83;;
14316;SDS011;7242;50.858;6.586;2023-08-12T15:34:13;2.67;;;0.80;;
14316;SDS011;7242;50.858;6.586;2023-08-12T15:37:14;1.07;;;0.90;;
14316;SDS011;7242;50.858;6.586;2023-08-12T15:40:15;2.53;;;0.90;;
14316;SDS011;7242;50.858;6.586;2023-08-12T15:43:16;1.30;;;0.73;;
14316;SDS011;7242;50.858;6.586;2023-08-12T15:46:17;1.63;;;0.80;;
14316;SDS011;7242;50.858;6.586;2023-08-12T15:49:18;0.77;;;0.70;;
14316;SDS011;7242;50.858;6.586;2023-08-12T15:52:19;2.30;;;1.00;;
14316;SDS011;7242;50.858;6.586;2023-08-12T15:55:19;1.60;;;0.80;;
14316;SDS011;7242;50.858;6.586;2023-08-12T15:58:21;1.47;;;1.00;;
14316;SDS011;7242;50.858;6.586;2023-08-12T16:01:21;3.80;;;1.10;;
14316;SDS011;7242;50.858;6.586;2023-08-12T16:04:22;1.17;;;0.90;;
14316;SDS011;7242;50.858;6.586;2023-08-12T16:07:23;1.77;;;1.23;;
14316;SDS011;7242;50.858;6.586;2023-08-12T16:10:25;2.27;;;1.20;;
14316;SDS011;7242;50.858;6.586;2023-08-12T16:13:25;1.33;;;0.93;;
14316;SDS011;7242;50.858;6.586;2023-08-12T16:16:26;1.97;;;1.30;;
14316;SDS011;7242;50.858;6.586;2023-08-12T16:19:27;2.27;;;1.10;;
14316;SDS011;7242;50.858;6.586;2023-08-12T16:22:28;2.57;;;1.20;;
14316;SDS011;7242;50.858;6.586;2023-08-12T16:25:29;2.13;;;1.20;;
14316;SDS011;7242;50.858;6.586;2023-08-12T16:28:30;2.67;;;1.33;;
14316;SDS011;7242;50.858;6.586;2023-08-12T16:31:31;2.13;;;1.17;;
14316;SDS011;7242;50.858;6.586;2023-08-12T16:34:32;1.63;;;1.30;;
14316;SDS011;7242;50.858;6.586;2023-08-12T16:37:34;1.90;;;1.30;;
14316;SDS011;7242;50.858;6.586;2023-08-12T16:40:35;3.13;;;1.50;;
14316;SDS011;7242;50.858;6.586;2023-08-12T16:43:37;2.37;;;1.40;;
14316;SDS011;7242;50.858;6.586;2023-08-12T16:46:38;3.03;;;1.07;;
14316;SDS011;7242;50.858;6.586;2023-08-12T16:49:39;3.30;;;1.53;;
14316;SDS011;7242;50.858;6.586;2023-08-12T16:52:39;3.30;;;1.20;;
14316;SDS011;7242;50.858;6.586;2023-08-12T16:55:40;2.00;;;1.20;;
14316;SDS011;7242;50.858;6.586;2023-08-12T16:58:42;3.90;;;2.00;;
14316;SDS011;7242;50.858;6.586;2023-08-12T17:01:43;2.70;;;1.50;;
14316;SDS011;7242;50.858;6.586;2023-08-12T17:04:46;3.57;;;1.10;;
14316;SDS011;7242;50.858;6.586;2023-08-12T17:07:47;3.00;;;1.40;;
14316;SDS011;7242;50.858;6.586;2023-08-12T17:10:47;2.43;;;1.37;;
14316;SDS011;7242;50.858;6.586;2023-08-12T17:13:48;2.80;;;1.50;;
14316;SDS011;7242;50.858;6.586;2023-08-12T17:16:49;2.17;;;1.07;;
14316;SDS011;7242;50.858;6.586;2023-08-12T17:19:50;3.33;;;1.10;;
14316;SDS011;7242;50.858;6.586;2023-08-12T17:22:51;2.13;;;0.93;;
14316;SDS011;7242;50.858;6.586;2023-08-12T17:25:52;2.80;;;1.07;;
14316;SDS011;7242;50.858;6.586;2023-08-12T17:28:53;3.17;;;1.50;;
14316;SDS011;7242;50.858;6.586;2023-08-12T17:31:54;3.83;;;1.73;;
14316;SDS011;7242;50.858;6.586;2023-08-12T17:34:55;4.27;;;1.50;;
14316;SDS011;7242;50.858;6.586;2023-08-12T17:37:56;2.37;;;1.10;;
14316;SDS011;7242;50.858;6.586;2023-08-12T17:40:57;4.17;;;1.57;;
14316;SDS011;7242;50.858;6.586;2023-08-12T17:43:58;5.10;;;1.37;;
14316;SDS011;7242;50.858;6.586;2023-08-12T17:46:59;2.63;;;1.20;;
14316;SDS011;7242;50.858;6.586;2023-08-12T17:50:00;2.77;;;1.10;;
14316;SDS011;7242;50.858;6.586;2023-08-12T17:53:01;4.20;;;1.60;;
14316;SDS011;7242;50.858;6.586;2023-08-12T17:56:02;3.50;;;1.40;;
14316;SDS011;7242;50.858;6.586;2023-08-12T17:59:03;2.93;;;1.60;;
14316;SDS011;7242;50.858;6.586;2023-08-12T18:02:05;4.97;;;1.50;;
14316;SDS011;7242;50.858;6.586;2023-08-12T18:05:07;4.57;;;1.60;;
14316;SDS011;7242;50.858;6.586;2023-08-12T18:08:08;2.97;;;1.30;;
14316;SDS011;7242;50.858;6.586;2023-08-12T18:11:09;3.87;;;1.60;;
14316;SDS011;7242;50.858;6.586;2023-08-12T18:14:09;3.13;;;1.33;;
14316;SDS011;7242;50.858;6.586;2023-08-12T18:17:11;4.23;;;1.80;;
14316;SDS011;7242;50.858;6.586;2023-08-12T18:20:12;3.10;;;1.60;;
14316;SDS011;7242;50.858;6.586;2023-08-12T18:23:13;5.37;;;1.43;;
14316;SDS011;7242;50.858;6.586;2023-08-12T18:26:14;3.80;;;1.40;;